createdAt,value
2022-08-16T00:00:41.759Z,2.40
2022-08-16T00:03:13.627Z,2.43
2022-08-16T00:05:48.347Z,2.57
2022-08-16T00:08:36.164Z,2.53
2022-08-16T00:11:05.603Z,2.50
2022-08-16T00:13:41.347Z,2.70
2022-08-16T00:17:01.262Z,2.50
2022-08-16T00:18:59.123Z,2.60
2022-08-16T00:21:28.940Z,2.40
2022-08-16T00:23:56.972Z,2.70
2022-08-16T00:26:35.030Z,2.43
2022-08-16T00:29:09.276Z,2.57
2022-08-16T00:31:58.729Z,2.60
2022-08-16T00:34:44.087Z,2.77
2022-08-16T00:37:17.152Z,2.67
2022-08-16T00:39:47.237Z,2.53
2022-08-16T00:42:29.713Z,2.83
2022-08-16T00:45:06.672Z,2.73
2022-08-16T00:47:36.943Z,2.57
2022-08-16T00:50:11.369Z,3.03
2022-08-16T00:52:45.798Z,2.73
2022-08-16T00:55:18.634Z,2.70
2022-08-16T00:58:00.156Z,2.60
2022-08-16T01:00:31.053Z,2.90
2022-08-16T01:03:02.199Z,2.93
2022-08-16T01:05:33.353Z,2.70
2022-08-16T01:08:02.464Z,2.90
2022-08-16T01:10:50.340Z,2.73
2022-08-16T01:13:22.887Z,2.90
2022-08-16T01:15:57.255Z,2.70
2022-08-16T01:18:40.190Z,3.00
2022-08-16T01:21:22.526Z,2.90
2022-08-16T01:24:52.250Z,2.70
2022-08-16T01:27:09.229Z,3.30
2022-08-16T01:29:57.133Z,2.90
2022-08-16T01:32:33.386Z,3.13
2022-08-16T01:35:05.473Z,3.00
2022-08-16T01:37:42.518Z,2.87
2022-08-16T01:40:13.556Z,3.10
2022-08-16T01:42:48.092Z,3.23
2022-08-16T01:45:19.801Z,3.03
2022-08-16T01:47:51.161Z,2.60
2022-08-16T01:50:43.208Z,2.50
2022-08-16T01:53:10.167Z,2.50
2022-08-16T01:55:41.267Z,3.10
2022-08-16T01:58:10.811Z,2.60
2022-08-16T02:00:40.159Z,2.90
2022-08-16T02:03:07.795Z,2.90
2022-08-16T02:05:40.738Z,3.03
2022-08-16T02:08:31.809Z,3.00
2022-08-16T02:11:02.419Z,2.73
2022-08-16T02:13:32.692Z,3.20
2022-08-16T02:16:00.604Z,3.00
2022-08-16T02:18:28.947Z,3.00
2022-08-16T02:20:56.695Z,3.20
2022-08-16T02:23:25.076Z,2.93
2022-08-16T02:25:57.301Z,2.83
2022-08-16T02:28:28.533Z,3.20
2022-08-16T02:31:00.392Z,2.87
2022-08-16T02:33:43.796Z,3.03
2022-08-16T02:36:48.265Z,3.00
2022-08-16T02:39:06.427Z,3.57
2022-08-16T02:41:39.251Z,3.30
2022-08-16T02:44:11.002Z,3.50
2022-08-16T02:46:41.620Z,3.50
2022-08-16T02:49:18.334Z,3.47
2022-08-16T02:51:48.018Z,3.30
2022-08-16T02:54:17.738Z,2.97
2022-08-16T02:56:47.810Z,3.10
2022-08-16T02:59:17.031Z,3.20
2022-08-16T03:01:44.759Z,2.97
2022-08-16T03:04:49.734Z,3.20
2022-08-16T03:06:59.849Z,3.40
2022-08-16T03:09:28.798Z,3.80
2022-08-16T03:12:00.897Z,3.70
2022-08-16T03:14:31.842Z,3.70
2022-08-16T03:17:01.946Z,3.50
2022-08-16T03:19:48.542Z,4.00
2022-08-16T03:22:28.191Z,3.47
2022-08-16T03:24:58.959Z,3.33
2022-08-16T03:27:30.663Z,3.37
2022-08-16T03:30:01.297Z,3.30
2022-08-16T03:32:29.792Z,3.13
2022-08-16T03:34:57.341Z,3.03
2022-08-16T03:37:24.904Z,3.10
2022-08-16T03:39:56.686Z,3.33
2022-08-16T03:42:30.572Z,2.90
2022-08-16T03:45:03.305Z,3.13
2022-08-16T03:47:34.848Z,3.13
2022-08-16T03:50:03.456Z,3.37
2022-08-16T03:52:50.987Z,3.70
2022-08-16T03:55:28.969Z,3.40
2022-08-16T03:58:12.643Z,3.33
2022-08-16T04:00:41.479Z,3.80
2022-08-16T04:03:10.717Z,3.50
2022-08-16T04:05:44.072Z,3.33
2022-08-16T04:08:22.450Z,3.60
2022-08-16T04:10:53.192Z,3.47
2022-08-16T04:13:58.979Z,3.60
2022-08-16T04:16:09.593Z,3.90
2022-08-16T04:19:01.238Z,3.40
2022-08-16T04:21:32.285Z,3.87
2022-08-16T04:24:00.352Z,3.97
2022-08-16T04:26:30.819Z,3.80
2022-08-16T04:29:15.144Z,3.90
2022-08-16T04:31:56.473Z,3.77
2022-08-16T04:34:29.106Z,3.80
2022-08-16T04:36:57.953Z,3.80
2022-08-16T04:39:37.099Z,3.73
2022-08-16T04:42:14.256Z,3.67
2022-08-16T04:44:54.646Z,3.50
2022-08-16T04:47:25.242Z,3.77
2022-08-16T04:50:00.848Z,3.60
2022-08-16T04:52:33.989Z,3.43
2022-08-16T04:55:06.071Z,3.93
2022-08-16T04:57:33.956Z,3.60
2022-08-16T05:00:31.952Z,4.20
2022-08-16T05:02:54.999Z,4.20
2022-08-16T05:05:25.237Z,3.70
2022-08-16T05:08:00.607Z,3.60
2022-08-16T05:10:29.508Z,4.00
2022-08-16T05:12:57.630Z,4.00
2022-08-16T05:15:25.698Z,3.87
2022-08-16T05:17:58.653Z,3.57
2022-08-16T05:20:38.884Z,4.20
2022-08-16T05:23:14.957Z,4.10
2022-08-16T05:25:48.349Z,4.20
2022-08-16T05:28:17.039Z,3.67
2022-08-16T05:30:44.742Z,4.20
2022-08-16T05:33:16.794Z,4.27
2022-08-16T05:35:54.930Z,4.07
2022-08-16T05:38:32.428Z,4.70
2022-08-16T05:41:07.071Z,3.93
2022-08-16T05:43:43.741Z,3.90
2022-08-16T05:46:30.142Z,4.00
2022-08-16T05:49:03.133Z,4.80
2022-08-16T05:51:37.716Z,4.50
2022-08-16T05:54:07.827Z,4.30
2022-08-16T05:56:37.975Z,4.60
2022-08-16T05:59:06.183Z,4.77
2022-08-16T06:01:38.271Z,4.63
2022-08-16T06:04:13.681Z,4.93
2022-08-16T06:06:56.008Z,4.40
2022-08-16T06:09:25.818Z,4.47
2022-08-16T06:12:11.677Z,4.30
2022-08-16T06:14:40.153Z,4.93
2022-08-16T06:17:07.810Z,4.77
2022-08-16T06:19:35.878Z,5.13
2022-08-16T06:22:04.792Z,5.17
2022-08-16T06:24:53.953Z,4.90
2022-08-16T06:27:20.071Z,5.27
2022-08-16T06:29:49.942Z,5.83
2022-08-16T06:32:27.278Z,5.80
2022-08-16T06:35:02.304Z,5.60
2022-08-16T06:37:37.391Z,6.00
2022-08-16T06:40:12.947Z,6.10
2022-08-16T06:42:47.630Z,6.30
2022-08-16T06:45:15.953Z,6.00
2022-08-16T06:47:53.270Z,5.27
2022-08-16T06:50:29.362Z,6.27
2022-08-16T06:53:09.016Z,5.93
2022-08-16T06:55:38.339Z,5.90
2022-08-16T06:58:08.350Z,6.10
2022-08-16T07:00:37.537Z,6.10
2022-08-16T07:03:27.798Z,6.30
2022-08-16T07:05:54.096Z,6.03
2022-08-16T07:08:23.560Z,5.37
2022-08-16T07:10:55.406Z,5.30
2022-08-16T07:13:51.711Z,5.10
2022-08-16T07:16:16.573Z,5.50
2022-08-16T07:18:58.914Z,5.60
2022-08-16T07:21:28.354Z,5.45
2022-08-16T07:24:30.066Z,5.33
2022-08-16T07:26:58.821Z,5.27
2022-08-16T07:29:26.457Z,5.13
2022-08-16T07:32:00.740Z,5.07
2022-08-16T07:34:35.345Z,5.32
2022-08-16T07:37:07.311Z,4.82
2022-08-16T07:39:43.288Z,5.45
2022-08-16T07:42:26.074Z,5.03
2022-08-16T07:44:59.443Z,4.90
2022-08-16T07:47:31.964Z,5.15
2022-08-16T07:49:59.960Z,5.45
2022-08-16T07:52:34.132Z,4.72
2022-08-16T07:55:03.051Z,4.88
2022-08-16T07:57:34.995Z,5.35
2022-08-16T08:00:06.817Z,4.63
2022-08-16T08:02:47.521Z,5.32
2022-08-16T08:05:28.195Z,4.40
2022-08-16T08:08:11.516Z,5.07
2022-08-16T08:10:52.596Z,4.53
2022-08-16T08:13:20.124Z,5.32
2022-08-16T08:16:09.947Z,4.82
2022-08-16T08:18:49.738Z,3.83
2022-08-16T08:21:19.523Z,4.53
2022-08-16T08:23:56.414Z,4.95
2022-08-16T08:26:25.915Z,3.90
2022-08-16T08:28:53.581Z,4.00
2022-08-16T08:31:28.624Z,3.95
2022-08-16T08:33:58.452Z,3.78
2022-08-16T08:36:33.543Z,3.72
2022-08-16T08:39:03.059Z,4.05
2022-08-16T08:41:42.642Z,3.80
2022-08-16T08:44:28.914Z,4.10
2022-08-16T08:46:59.816Z,3.65
2022-08-16T08:49:50.331Z,3.35
2022-08-16T08:52:35.304Z,3.35
2022-08-16T08:55:10.723Z,3.67
2022-08-16T08:57:41.929Z,3.65
2022-08-16T09:00:13.644Z,2.95
2022-08-16T09:02:42.561Z,3.30
2022-08-16T09:05:14.980Z,3.40
2022-08-16T09:08:02.043Z,3.60
2022-08-16T09:10:32.457Z,3.60
2022-08-16T09:13:06.025Z,3.15
2022-08-16T09:15:36.042Z,3.03
2022-08-16T09:18:26.333Z,3.30
2022-08-16T09:20:59.550Z,3.00
2022-08-16T09:23:28.769Z,3.00
2022-08-16T09:25:56.312Z,3.30
2022-08-16T09:29:15.437Z,2.70
2022-08-16T09:31:13.711Z,2.97
2022-08-16T09:33:41.932Z,2.63
2022-08-16T09:36:11.890Z,2.47
2022-08-16T09:38:59.981Z,2.80
2022-08-16T09:41:28.290Z,2.95
2022-08-16T09:43:59.648Z,2.70
2022-08-16T09:46:45.969Z,2.97
2022-08-16T09:49:16.684Z,3.00
2022-08-16T09:51:48.151Z,2.67
2022-08-16T09:54:20.884Z,2.58
2022-08-16T09:56:52.686Z,2.45
2022-08-16T09:59:25.210Z,2.50
2022-08-16T10:01:54.519Z,2.50
2022-08-16T10:04:31.158Z,2.60
2022-08-16T10:07:02.960Z,2.53
2022-08-16T10:09:53.398Z,2.47
2022-08-16T10:12:42.136Z,2.38
2022-08-16T10:15:15.955Z,2.28
2022-08-16T10:18:00.071Z,2.30
2022-08-16T10:20:29.822Z,2.20
2022-08-16T10:23:03.526Z,2.30
2022-08-16T10:27:18.564Z,2.47
2022-08-16T10:28:31.981Z,2.10
2022-08-16T10:31:03.562Z,2.05
2022-08-16T10:33:33.863Z,2.17
2022-08-16T10:36:04.862Z,2.17
2022-08-16T10:38:36.672Z,2.10
2022-08-16T10:41:07.161Z,1.85
2022-08-16T10:43:35.610Z,1.98
2022-08-16T10:46:40.165Z,1.95
2022-08-16T10:48:53.439Z,1.90
2022-08-16T10:51:21.051Z,2.03
2022-08-16T10:54:02.628Z,2.00
2022-08-16T10:56:52.807Z,1.98
2022-08-16T10:59:44.111Z,1.85
2022-08-16T11:02:59.736Z,2.00
2022-08-16T11:05:08.942Z,2.08
2022-08-16T11:07:51.964Z,2.20
2022-08-16T11:13:58.193Z,2.03
2022-08-16T11:16:25.361Z,2.05
2022-08-16T11:19:05.212Z,2.10
2022-08-16T11:21:37.404Z,1.80
2022-08-16T11:24:39.444Z,2.10
2022-08-16T11:29:41.220Z,1.80
2022-08-16T11:32:10.242Z,2.20
2022-08-16T11:35:06.085Z,1.90
2022-08-16T11:37:27.415Z,2.08
2022-08-16T11:40:02.589Z,2.08
2022-08-16T11:42:34.396Z,2.10
2022-08-16T11:45:05.762Z,2.00
2022-08-16T11:47:33.956Z,2.20
2022-08-16T11:50:02.888Z,1.80
2022-08-16T11:52:31.055Z,2.10
2022-08-16T11:55:00.296Z,1.83
2022-08-16T11:57:28.183Z,2.15
2022-08-16T11:59:55.750Z,1.90
2022-08-16T12:02:31.351Z,1.83
2022-08-16T12:05:01.015Z,2.00
2022-08-16T12:07:31.592Z,1.90
2022-08-16T12:10:01.326Z,1.90
2022-08-16T12:12:29.908Z,1.95
2022-08-16T12:15:01.558Z,1.92
2022-08-16T12:17:31.514Z,1.80
2022-08-16T12:19:59.821Z,1.73
2022-08-16T12:22:28.134Z,1.73
2022-08-16T12:24:57.128Z,1.60
2022-08-16T12:27:26.745Z,1.70
2022-08-16T12:29:54.744Z,1.90
2022-08-16T12:32:26.637Z,2.03
2022-08-16T12:35:08.354Z,1.80
2022-08-16T12:37:36.515Z,2.03
2022-08-16T12:40:17.830Z,1.80
2022-08-16T12:42:58.433Z,1.90
2022-08-16T12:45:30.139Z,1.70
2022-08-16T12:48:33.595Z,1.75
2022-08-16T12:51:02.032Z,1.70
2022-08-16T12:53:31.734Z,1.75
2022-08-16T12:56:01.615Z,1.85
2022-08-16T12:58:49.182Z,1.90
2022-08-16T13:01:17.973Z,1.65
2022-08-16T13:03:46.236Z,1.75
2022-08-16T13:06:14.719Z,1.90
2022-08-16T13:08:48.308Z,1.80
2022-08-16T13:11:20.371Z,1.70
2022-08-16T13:13:54.667Z,1.70
2022-08-16T13:16:24.959Z,1.70
2022-08-16T13:18:54.719Z,1.52
2022-08-16T13:21:23.833Z,1.70
2022-08-16T13:23:55.194Z,1.70
2022-08-16T13:26:26.353Z,1.70
2022-08-16T13:28:54.777Z,1.90
2022-08-16T13:31:23.901Z,1.80
2022-08-16T13:33:54.554Z,1.70
2022-08-16T13:36:47.996Z,1.60
2022-08-16T13:39:14.234Z,1.60
2022-08-16T13:41:43.116Z,1.60
2022-08-16T13:44:11.100Z,1.70
2022-08-16T13:46:43.209Z,1.58
2022-08-16T13:49:11.523Z,1.80
2022-08-16T13:51:39.798Z,1.65
2022-08-16T13:54:08.150Z,1.83
2022-08-16T13:56:39.448Z,1.40
2022-08-16T13:59:19.311Z,1.42
2022-08-16T14:01:55.271Z,1.48
2022-08-16T14:04:26.858Z,1.40
2022-08-16T14:06:56.300Z,1.60
2022-08-16T14:09:24.556Z,1.50
2022-08-16T14:11:54.659Z,1.60
2022-08-16T14:14:29.110Z,1.73
2022-08-16T14:16:57.990Z,1.60
2022-08-16T14:19:26.510Z,1.60
2022-08-16T14:22:13.382Z,1.63
2022-08-16T14:24:45.178Z,1.58
2022-08-16T14:27:15.771Z,1.60
2022-08-16T14:29:49.462Z,1.70
2022-08-16T14:32:33.706Z,1.70
2022-08-16T14:35:05.979Z,1.80
2022-08-16T14:37:35.364Z,1.63
2022-08-16T14:40:03.863Z,1.70
2022-08-16T14:42:31.821Z,1.70
2022-08-16T14:45:00.826Z,1.70
2022-08-16T14:47:34.202Z,1.80
2022-08-16T14:50:02.848Z,1.65
2022-08-16T14:55:21.260Z,1.60
2022-08-16T14:57:49.894Z,1.60
2022-08-16T15:00:33.083Z,1.60
2022-08-16T15:03:04.553Z,1.60
2022-08-16T15:05:32.979Z,1.70
2022-08-16T15:08:00.646Z,1.50
2022-08-16T15:10:32.106Z,1.30
2022-08-16T15:13:01.083Z,1.50
2022-08-16T15:15:31.377Z,1.50
2022-08-16T15:18:01.492Z,1.33
2022-08-16T15:20:32.223Z,1.42
2022-08-16T15:23:01.580Z,1.50
2022-08-16T15:25:33.025Z,1.48
2022-08-16T15:28:02.450Z,1.35
2022-08-16T15:30:57.580Z,1.33
2022-08-16T15:33:24.614Z,1.60
2022-08-16T15:35:57.912Z,1.42
2022-08-16T15:38:55.179Z,1.45
2022-08-16T15:41:33.333Z,1.42
2022-08-16T15:44:05.194Z,1.50
2022-08-16T15:46:55.321Z,1.30
2022-08-16T15:49:37.825Z,1.35
2022-08-16T15:52:16.279Z,1.50
2022-08-16T15:54:55.332Z,1.42
2022-08-16T15:57:24.495Z,1.60
2022-08-16T15:59:56.127Z,1.50
2022-08-16T16:02:30.578Z,1.60
2022-08-16T16:05:00.548Z,1.50
2022-08-16T16:07:29.988Z,1.48
2022-08-16T16:09:59.016Z,1.40
2022-08-16T16:12:51.478Z,1.40
2022-08-16T16:15:16.439Z,1.40
2022-08-16T16:17:50.860Z,1.50
2022-08-16T16:20:19.917Z,1.60
2022-08-16T16:22:49.252Z,1.98
2022-08-16T16:25:17.778Z,1.50
2022-08-16T16:27:46.493Z,1.40
2022-08-16T16:30:33.258Z,1.42
2022-08-16T16:33:15.490Z,1.40
2022-08-16T16:35:55.342Z,1.40
2022-08-16T16:38:27.178Z,1.50
2022-08-16T16:40:54.960Z,1.40
2022-08-16T16:43:25.709Z,1.60
2022-08-16T16:45:58.206Z,1.40
2022-08-16T16:48:34.433Z,1.40
2022-08-16T16:51:09.135Z,1.35
2022-08-16T16:53:40.997Z,1.33
2022-08-16T16:56:19.486Z,1.40
2022-08-16T16:59:00.929Z,1.50
2022-08-16T17:01:56.898Z,1.20
2022-08-16T17:04:31.959Z,1.40
2022-08-16T17:07:01.906Z,1.70
2022-08-16T17:09:29.935Z,1.55
2022-08-16T17:11:58.809Z,1.42
2022-08-16T17:14:32.689Z,1.60
2022-08-16T17:17:01.593Z,1.25
2022-08-16T17:19:32.108Z,1.50
2022-08-16T17:21:59.985Z,1.50
2022-08-16T17:24:36.954Z,1.50
2022-08-16T17:27:07.586Z,1.40
2022-08-16T17:32:33.694Z,1.50
2022-08-16T17:35:19.121Z,1.48
2022-08-16T17:37:50.821Z,1.40
2022-08-16T17:39:26.964Z,1.60
2022-08-16T17:40:25.467Z,1.52
2022-08-16T17:43:10.095Z,1.40
2022-08-16T17:45:38.255Z,1.40
2022-08-16T17:48:06.376Z,1.60
2022-08-16T17:50:35.943Z,1.60
2022-08-16T17:53:04.740Z,1.40
2022-08-16T17:55:35.248Z,1.38
2022-08-16T17:58:18.077Z,1.50
2022-08-16T18:00:52.130Z,1.75
2022-08-16T18:04:09.212Z,1.67
2022-08-16T18:06:15.607Z,1.60
2022-08-16T18:08:43.281Z,1.80
2022-08-16T18:11:13.370Z,1.70
2022-08-16T18:13:42.841Z,1.85
2022-08-16T18:16:10.597Z,1.88
2022-08-16T18:18:38.142Z,1.80
2022-08-16T18:21:23.299Z,1.73
2022-08-16T18:23:52.384Z,1.60
2022-08-16T18:26:20.103Z,1.70
2022-08-16T18:28:47.688Z,1.58
2022-08-16T18:31:15.209Z,1.70
2022-08-16T18:33:43.819Z,1.67
2022-08-16T18:36:20.827Z,1.63
2022-08-16T18:38:49.597Z,1.60
2022-08-16T18:41:19.067Z,1.50
2022-08-16T18:44:22.256Z,1.60
2022-08-16T18:46:34.380Z,1.50
2022-08-16T18:49:01.942Z,1.38
2022-08-16T18:51:31.590Z,1.52
2022-08-16T18:53:59.337Z,1.52
2022-08-16T18:56:55.824Z,1.50
2022-08-16T18:59:15.835Z,1.67
2022-08-16T19:01:43.457Z,1.40
2022-08-16T19:04:50.541Z,1.50
2022-08-16T19:06:58.623Z,1.80
2022-08-16T19:09:26.170Z,1.55
2022-08-16T19:11:55.044Z,1.55
2022-08-16T19:14:29.845Z,1.60
2022-08-16T19:16:57.448Z,1.60
2022-08-16T19:19:25.016Z,1.55
2022-08-16T19:21:52.556Z,1.52
2022-08-16T19:24:20.163Z,1.52
2022-08-16T19:26:50.392Z,1.58
2022-08-16T19:29:19.327Z,1.60
2022-08-16T19:31:47.001Z,1.60
2022-08-16T19:34:16.256Z,1.70
2022-08-16T19:36:43.829Z,1.65
2022-08-16T19:39:14.553Z,1.50
2022-08-16T19:41:44.379Z,1.52
2022-08-16T19:44:12.909Z,1.50
2022-08-16T19:46:44.804Z,1.58
2022-08-16T19:49:15.847Z,1.40
2022-08-16T19:51:44.417Z,1.55
2022-08-16T19:54:11.995Z,1.45
2022-08-16T19:56:39.580Z,1.65
2022-08-16T19:59:39.907Z,1.50
2022-08-16T20:01:56.108Z,1.60
2022-08-16T20:04:25.758Z,1.50
2022-08-16T20:06:54.225Z,1.63
2022-08-16T20:09:22.382Z,1.70
2022-08-16T20:11:50.445Z,1.75
2022-08-16T20:14:24.466Z,1.55
2022-08-16T20:16:54.113Z,1.70
2022-08-16T20:19:23.010Z,1.52
2022-08-16T20:21:50.711Z,1.52
2022-08-16T20:24:35.700Z,1.50
2022-08-16T20:27:04.299Z,1.58
2022-08-16T20:29:31.956Z,1.63
2022-08-16T20:31:59.588Z,1.75
2022-08-16T20:34:28.569Z,1.50
2022-08-16T20:36:56.159Z,1.85
2022-08-16T20:39:24.079Z,1.70
2022-08-16T20:41:51.996Z,1.60
2022-08-16T20:44:22.655Z,1.33
2022-08-16T20:46:50.865Z,1.70
2022-08-16T20:49:18.555Z,1.58
2022-08-16T20:51:51.658Z,1.57
2022-08-16T20:54:21.503Z,1.55
2022-08-16T20:56:49.161Z,1.60
2022-08-16T20:59:16.887Z,1.50
2022-08-16T21:01:45.739Z,1.90
2022-08-16T21:04:17.175Z,1.50
2022-08-16T21:06:53.941Z,1.77
2022-08-16T21:09:25.099Z,1.90
2022-08-16T21:11:54.258Z,1.65
2022-08-16T21:14:21.818Z,1.60
2022-08-16T21:16:49.431Z,1.80
2022-08-16T21:19:17.475Z,1.70
2022-08-16T21:21:45.199Z,1.50
2022-08-16T21:24:13.137Z,1.50
2022-08-16T21:26:53.924Z,1.67
2022-08-16T21:29:24.975Z,1.38
2022-08-16T21:31:54.853Z,1.50
2022-08-16T21:34:22.494Z,1.53
2022-08-16T21:36:50.029Z,1.50
2022-08-16T21:39:17.517Z,1.37
2022-08-16T21:41:46.379Z,1.40
2022-08-16T21:44:13.987Z,1.50
2022-08-16T21:46:41.486Z,1.43
2022-08-16T21:49:09.029Z,1.70
2022-08-16T21:51:36.893Z,1.60
2022-08-16T21:54:04.704Z,1.70
2022-08-16T21:56:32.468Z,1.50
2022-08-16T21:59:01.340Z,1.60
2022-08-16T22:01:29.429Z,1.60
2022-08-16T22:04:27.190Z,1.50
2022-08-16T22:06:44.821Z,1.57
2022-08-16T22:09:15.295Z,1.47
2022-08-16T22:11:43.750Z,1.70
2022-08-16T22:14:12.995Z,1.60
2022-08-16T22:16:41.933Z,1.60
2022-08-16T22:19:09.605Z,1.50
2022-08-16T22:21:37.206Z,1.43
2022-08-16T22:24:06.165Z,1.60
2022-08-16T22:26:40.865Z,1.50
2022-08-16T22:29:14.081Z,1.53
2022-08-16T22:31:43.216Z,1.60
2022-08-16T22:34:10.915Z,1.70
2022-08-16T22:36:38.847Z,1.70
2022-08-16T22:39:08.965Z,1.77
2022-08-16T22:41:37.707Z,1.80
2022-08-16T22:44:07.362Z,1.80
2022-08-16T22:46:37.612Z,1.80
2022-08-16T22:49:05.678Z,1.53
2022-08-16T22:51:33.228Z,1.67
2022-08-16T22:54:01.179Z,1.80
2022-08-16T22:56:48.727Z,1.60
2022-08-16T22:59:16.276Z,1.90
2022-08-16T23:01:45.288Z,1.70
2022-08-16T23:04:12.891Z,1.70
2022-08-16T23:06:40.449Z,1.67
2022-08-16T23:09:08.013Z,1.80
2022-08-16T23:11:35.696Z,1.80
2022-08-16T23:14:03.252Z,1.73
2022-08-16T23:16:34.467Z,1.80
2022-08-16T23:19:05.737Z,1.80
2022-08-16T23:21:33.839Z,1.70
2022-08-16T23:24:01.447Z,1.93
2022-08-16T23:26:45.298Z,1.80
2022-08-16T23:29:24.553Z,1.50
2022-08-16T23:31:56.279Z,1.80
2022-08-16T23:34:26.675Z,1.90
2022-08-16T23:36:54.221Z,2.00
2022-08-16T23:39:21.785Z,1.90
2022-08-16T23:41:49.321Z,1.87
2022-08-16T23:44:55.923Z,1.90
2022-08-16T23:47:05.880Z,1.70
2022-08-16T23:49:56.772Z,1.90
2022-08-16T23:52:53.209Z,1.90
2022-08-16T23:55:10.408Z,1.80
2022-08-16T23:57:37.941Z,1.87
